Time;durP1;ratioP1;P1;durP2;ratioP2;P2;SDS_P1;SDS_P2;PMS_P1;PMS_P2;Temp;Humidity;BMP_temperature;BMP_pressure;BME280_temperature;BME280_humidity;BME280_pressure;Samples;Min_cycle;Max_cycle;Signal;HPM_P1;HPM_P2
2022/09/30 04:01:58;;;;;;;3.83;3.33;;;;;;;;;;5368586;22;20685;-85
2022/09/30 04:04:24;;;;;;;3.20;3.00;;;;;;;;;;5001677;28;20926;-83
2022/09/30 04:06:50;;;;;;;2.97;2.77;;;;;;;;;;4998771;28;20405;-83
2022/09/30 04:09:16;;;;;;;3.17;2.90;;;;;;;;;;4980348;28;20502;-84
2022/09/30 04:11:42;;;;;;;3.00;2.80;;;;;;;;;;5036738;28;20722;-83
2022/09/30 04:14:08;;;;;;;3.85;2.83;;;;;;;;;;5058278;28;20484;-84
2022/09/30 04:16:34;;;;;;;2.90;2.70;;;;;;;;;;5071138;28;20455;-83
2022/09/30 04:19:00;;;;;;;2.85;2.63;;;;;;;;;;5064191;28;20876;-84
2022/09/30 04:21:29;;;;;;;2.70;2.45;;;;;;;;;;5072540;28;20384;-83
2022/09/30 04:23:56;;;;;;;3.28;2.80;;;;;;;;;;5073617;28;20379;-83
2022/09/30 04:26:22;;;;;;;2.70;2.50;;;;;;;;;;5073977;28;20403;-84
2022/09/30 04:28:48;;;;;;;2.78;2.58;;;;;;;;;;5071441;28;20416;-84
2022/09/30 04:31:20;;;;;;;2.90;2.63;;;;;;;;;;5073586;28;20885;-83
2022/09/30 04:33:46;;;;;;;2.88;2.67;;;;;;;;;;5073994;28;20383;-83
2022/09/30 04:36:12;;;;;;;2.90;2.70;;;;;;;;;;5076760;28;20376;-83
2022/09/30 04:38:38;;;;;;;3.28;2.90;;;;;;;;;;5073261;28;20423;-83
2022/09/30 04:41:04;;;;;;;3.00;2.80;;;;;;;;;;5073525;28;20468;-84
2022/09/30 04:43:30;;;;;;;3.37;2.90;;;;;;;;;;5073475;28;20464;-83
2022/09/30 04:45:56;;;;;;;2.92;2.58;;;;;;;;;;5073620;28;20372;-84
2022/09/30 04:48:23;;;;;;;3.42;2.70;;;;;;;;;;5073614;28;20925;-84
2022/09/30 04:50:49;;;;;;;2.92;2.50;;;;;;;;;;5073217;28;20407;-83
2022/09/30 04:53:16;;;;;;;2.60;2.40;;;;;;;;;;5073321;28;20394;-84
2022/09/30 04:55:42;;;;;;;2.80;2.50;;;;;;;;;;5072803;28;20371;-84
2022/09/30 04:58:08;;;;;;;2.92;2.67;;;;;;;;;;5069185;28;20380;-84
2022/09/30 05:00:34;;;;;;;2.75;2.55;;;;;;;;;;5058105;28;20384;-83
2022/09/30 05:03:00;;;;;;;3.40;2.60;;;;;;;;;;5063328;28;20738;-84
2022/09/30 05:05:26;;;;;;;4.50;3.20;;;;;;;;;;5069793;28;20864;-85
2022/09/30 05:07:52;;;;;;;3.92;3.58;;;;;;;;;;5071295;28;20390;-86
2022/09/30 05:10:19;;;;;;;4.03;3.72;;;;;;;;;;5072099;28;20419;-86
2022/09/30 05:12:45;;;;;;;3.53;3.22;;;;;;;;;;5072728;28;20921;-85
2022/09/30 05:15:11;;;;;;;3.40;3.20;;;;;;;;;;5072909;28;20376;-85
2022/09/30 05:17:37;;;;;;;3.53;3.22;;;;;;;;;;5070444;28;20384;-85
2022/09/30 05:20:04;;;;;;;3.80;3.50;;;;;;;;;;5052510;28;20878;-86
2022/09/30 05:22:30;;;;;;;3.70;3.20;;;;;;;;;;5066393;28;20430;-85
2022/09/30 05:24:56;;;;;;;3.80;3.60;;;;;;;;;;5072324;28;20372;-85
2022/09/30 05:27:23;;;;;;;3.53;3.33;;;;;;;;;;5072358;28;20462;-85
2022/09/30 05:29:49;;;;;;;3.70;3.40;;;;;;;;;;5075112;28;20407;-86
2022/09/30 05:32:15;;;;;;;3.58;3.28;;;;;;;;;;5072493;28;20384;-86
2022/09/30 05:34:41;;;;;;;3.72;3.42;;;;;;;;;;5072449;28;20376;-88
2022/09/30 05:37:11;;;;;;;3.60;3.30;;;;;;;;;;4986556;28;20876;-88
2022/09/30 05:39:37;;;;;;;3.72;3.42;;;;;;;;;;5071558;28;20383;-87
2022/09/30 05:42:03;;;;;;;5.80;3.33;;;;;;;;;;5072218;28;20528;-87
2022/09/30 05:44:29;;;;;;;3.97;3.67;;;;;;;;;;5072099;28;20391;-87
2022/09/30 05:46:55;;;;;;;3.83;3.42;;;;;;;;;;5072294;28;20411;-85
2022/09/30 05:49:21;;;;;;;4.30;3.90;;;;;;;;;;5072249;28;20993;-85
2022/09/30 05:51:47;;;;;;;4.20;3.90;;;;;;;;;;5072137;28;20534;-86
2022/09/30 05:54:13;;;;;;;3.97;3.20;;;;;;;;;;5061446;28;20873;-88
2022/09/30 05:56:39;;;;;;;3.72;3.47;;;;;;;;;;5072078;28;20380;-88
2022/09/30 05:59:06;;;;;;;3.92;3.63;;;;;;;;;;5059900;28;20389;-88
2022/09/30 06:01:32;;;;;;;3.60;3.33;;;;;;;;;;5023406;28;20426;-88
2022/09/30 06:03:57;;;;;;;3.97;3.15;;;;;;;;;;5072111;28;20403;-87
2022/09/30 06:06:24;;;;;;;3.95;3.60;;;;;;;;;;5071774;28;20450;-88
2022/09/30 06:08:50;;;;;;;4.80;3.70;;;;;;;;;;5075609;28;20379;-89
2022/09/30 06:11:17;;;;;;;3.90;3.60;;;;;;;;;;5067053;28;20488;-88
2022/09/30 06:13:44;;;;;;;3.63;3.42;;;;;;;;;;5034138;28;20388;-85
2022/09/30 06:16:11;;;;;;;3.65;3.35;;;;;;;;;;5026075;28;20864;-84
2022/09/30 06:18:39;;;;;;;3.97;3.67;;;;;;;;;;5072179;28;20376;-85
2022/09/30 06:21:06;;;;;;;3.58;3.28;;;;;;;;;;5071799;28;20379;-85
2022/09/30 06:23:33;;;;;;;4.60;3.30;;;;;;;;;;5071460;28;20384;-84
2022/09/30 06:26:01;;;;;;;3.55;3.25;;;;;;;;;;5071956;28;20436;-85
2022/09/30 06:28:27;;;;;;;3.20;3.00;;;;;;;;;;5071870;28;20876;-89
2022/09/30 06:30:53;;;;;;;3.88;3.50;;;;;;;;;;5070694;28;20411;-90
2022/09/30 06:33:20;;;;;;;3.13;2.92;;;;;;;;;;4989575;28;20391;-90
2022/09/30 06:35:46;;;;;;;3.40;3.10;;;;;;;;;;5072154;28;20894;-91
2022/09/30 06:38:14;;;;;;;3.33;3.03;;;;;;;;;;5074320;28;20872;-90
2022/09/30 06:40:41;;;;;;;4.10;3.70;;;;;;;;;;4985987;28;20391;-89
2022/09/30 06:43:07;;;;;;;3.92;3.63;;;;;;;;;;5071968;28;20399;-89
2022/09/30 06:45:35;;;;;;;5.20;4.00;;;;;;;;;;4986541;28;20380;-88
2022/09/30 06:48:02;;;;;;;4.33;4.03;;;;;;;;;;5007287;28;20385;-91
2022/09/30 06:50:29;;;;;;;4.40;4.00;;;;;;;;;;5074653;28;20452;-88
2022/09/30 06:53:02;;;;;;;4.70;4.40;;;;;;;;;;5024442;28;20376;-89
2022/09/30 06:55:28;;;;;;;5.53;5.03;;;;;;;;;;5059483;28;20462;-90
2022/09/30 06:57:55;;;;;;;6.30;5.70;;;;;;;;;;5069542;28;20919;-90
2022/09/30 07:00:21;;;;;;;6.03;5.53;;;;;;;;;;5078382;28;20387;-89
2022/09/30 07:02:47;;;;;;;6.40;5.90;;;;;;;;;;5029231;28;20400;-90
2022/09/30 07:05:14;;;;;;;6.60;6.10;;;;;;;;;;5071212;28;20415;-90
2022/09/30 07:07:41;;;;;;;6.40;5.95;;;;;;;;;;5073758;28;20384;-90
2022/09/30 07:10:07;;;;;;;6.80;6.22;;;;;;;;;;5075999;28;20445;-91
2022/09/30 07:12:33;;;;;;;8.00;7.32;;;;;;;;;;5170647;22;20432;-87
2022/09/30 07:14:59;;;;;;;7.75;7.15;;;;;;;;;;5056759;28;20389;-87
2022/09/30 07:17:28;;;;;;;7.22;6.63;;;;;;;;;;5011409;28;20381;-87
2022/09/30 07:19:54;;;;;;;8.10;7.50;;;;;;;;;;5065002;28;20461;-87
2022/09/30 07:22:28;;;;;;;9.37;8.57;;;;;;;;;;5077765;28;20507;-87
2022/09/30 07:24:54;;;;;;;8.50;7.90;;;;;;;;;;4991702;28;20528;-88
2022/09/30 07:27:20;;;;;;;7.93;7.30;;;;;;;;;;4991904;28;20428;-87
2022/09/30 07:29:47;;;;;;;8.45;7.75;;;;;;;;;;4992005;28;20468;-87
2022/09/30 07:32:14;;;;;;;8.50;7.90;;;;;;;;;;4992278;28;20415;-86
2022/09/30 07:34:41;;;;;;;7.43;6.90;;;;;;;;;;4974753;28;20415;-87
2022/09/30 07:37:08;;;;;;;7.40;6.90;;;;;;;;;;4974823;28;20792;-86
2022/09/30 07:39:34;;;;;;;7.85;7.25;;;;;;;;;;4992190;28;20383;-87
2022/09/30 07:42:01;;;;;;;7.70;7.10;;;;;;;;;;4992039;28;20435;-87
2022/09/30 07:44:28;;;;;;;7.45;6.95;;;;;;;;;;4992192;28;20473;-87
2022/09/30 07:46:54;;;;;;;7.63;7.03;;;;;;;;;;4992050;28;20871;-87
2022/09/30 07:49:24;;;;;;;8.57;7.88;;;;;;;;;;5056493;28;20477;-90
2022/09/30 07:51:51;;;;;;;8.13;7.43;;;;;;;;;;4975871;28;20881;-90
2022/09/30 07:54:18;;;;;;;7.30;6.78;;;;;;;;;;5073512;28;20868;-90
2022/09/30 07:56:45;;;;;;;8.07;7.47;;;;;;;;;;5074300;28;20854;-90
2022/09/30 07:59:12;;;;;;;7.20;6.70;;;;;;;;;;5072318;28;20795;-90
2022/09/30 08:01:39;;;;;;;7.80;7.20;;;;;;;;;;5072307;28;20399;-90
2022/09/30 08:04:06;;;;;;;134.97;17.33;;;;;;;;;;5070880;28;20395;-88
2022/09/30 08:06:32;;;;;;;7.37;6.70;;;;;;;;;;5077712;28;20382;-88
2022/09/30 08:08:59;;;;;;;8.00;7.30;;;;;;;;;;5074352;28;20744;-88
2022/09/30 08:11:25;;;;;;;7.53;6.80;;;;;;;;;;5056085;28;20487;-88
2022/09/30 08:13:52;;;;;;;8.48;7.72;;;;;;;;;;5042237;28;20403;-88
2022/09/30 08:16:18;;;;;;;8.02;7.43;;;;;;;;;;4991597;28;20405;-88
2022/09/30 08:18:44;;;;;;;7.55;6.95;;;;;;;;;;4991912;28;20403;-87
2022/09/30 08:21:10;;;;;;;7.10;6.60;;;;;;;;;;5019439;28;20471;-87
2022/09/30 08:23:36;;;;;;;7.15;6.65;;;;;;;;;;5073812;28;20746;-86
2022/09/30 08:26:03;;;;;;;6.05;5.65;;;;;;;;;;5088239;28;20386;-87
2022/09/30 08:28:32;;;;;;;6.53;6.03;;;;;;;;;;5073831;28;20391;-86
2022/09/30 08:31:05;;;;;;;6.50;6.00;;;;;;;;;;5073086;28;20468;-87
2022/09/30 08:33:31;;;;;;;6.00;5.50;;;;;;;;;;4991395;28;20387;-89
2022/09/30 08:36:01;;;;;;;5.95;5.45;;;;;;;;;;4991631;28;20375;-87
2022/09/30 08:38:27;;;;;;;8.32;6.72;;;;;;;;;;4991268;28;20415;-88
2022/09/30 08:41:13;;;;;;;6.38;5.88;;;;;;;;;;4991123;28;20433;-87
2022/09/30 08:43:58;;;;;;;6.38;5.88;;;;;;;;;;5001087;28;20852;-87
2022/09/30 08:46:27;;;;;;;7.57;6.90;;;;;;;;;;4991092;28;20382;-87
2022/09/30 08:49:16;;;;;;;7.82;7.22;;;;;;;;;;4991155;28;20437;-86
2022/09/30 08:51:45;;;;;;;7.63;7.03;;;;;;;;;;4990928;28;20424;-87
2022/09/30 08:54:15;;;;;;;44.40;24.52;;;;;;;;;;4991056;28;20379;-87
2022/09/30 08:56:42;;;;;;;21.25;14.55;;;;;;;;;;4991102;28;20415;-88
2022/09/30 08:59:27;;;;;;;17.55;12.18;;;;;;;;;;5068348;28;20406;-89
2022/09/30 09:01:54;;;;;;;8.70;8.00;;;;;;;;;;5072789;28;20447;-87
2022/09/30 09:04:20;;;;;;;7.85;7.25;;;;;;;;;;5072965;28;20376;-86
2022/09/30 09:07:04;;;;;;;7.60;7.00;;;;;;;;;;4990622;28;20479;-88
2022/09/30 09:09:31;;;;;;;8.68;7.88;;;;;;;;;;4994084;28;20398;-88
2022/09/30 09:12:27;;;;;;;7.35;6.85;;;;;;;;;;5071611;28;20426;-88
2022/09/30 09:15:12;;;;;;;6.65;6.13;;;;;;;;;;4998950;28;20394;-87
2022/09/30 09:18:17;;;;;;;6.00;5.60;;;;;;;;;;5004224;28;20386;-87
2022/09/30 09:21:09;;;;;;;7.47;6.17;;;;;;;;;;5007137;28;20395;-87
2022/09/30 09:23:35;;;;;;;6.32;5.82;;;;;;;;;;5027972;28;20398;-90
2022/09/30 09:26:03;;;;;;;6.82;6.00;;;;;;;;;;5030811;28;20395;-84
2022/09/30 09:28:34;;;;;;;6.70;6.10;;;;;;;;;;5030782;28;20402;-85
2022/09/30 09:31:00;;;;;;;6.70;6.10;;;;;;;;;;5009942;28;20432;-84
2022/09/30 09:33:38;;;;;;;6.88;6.38;;;;;;;;;;5008709;28;20399;-85
2022/09/30 09:36:23;;;;;;;6.80;6.30;;;;;;;;;;5008670;28;20383;-85
2022/09/30 09:38:54;;;;;;;6.53;6.03;;;;;;;;;;5008122;28;20397;-84
2022/09/30 09:41:20;;;;;;;7.13;6.40;;;;;;;;;;5008436;28;20389;-85
2022/09/30 09:43:51;;;;;;;7.10;6.20;;;;;;;;;;5010348;28;20385;-84
2022/09/30 09:46:17;;;;;;;7.20;6.60;;;;;;;;;;5010586;28;20403;-85
2022/09/30 09:48:43;;;;;;;6.70;6.10;;;;;;;;;;5010853;28;20388;-84
2022/09/30 09:51:12;;;;;;;6.53;5.93;;;;;;;;;;5035203;28;20407;-85
2022/09/30 09:53:52;;;;;;;7.13;6.43;;;;;;;;;;5072283;28;20849;-84
2022/09/30 09:56:19;;;;;;;7.78;6.97;;;;;;;;;;4990174;28;20444;-84
2022/09/30 09:59:04;;;;;;;6.85;6.35;;;;;;;;;;5054332;28;20434;-85
2022/09/30 10:01:31;;;;;;;6.55;5.85;;;;;;;;;;5052655;28;21253;-84
2022/09/30 10:04:14;;;;;;;6.03;5.55;;;;;;;;;;5067797;28;20880;-83
2022/09/30 10:07:01;;;;;;;6.70;6.15;;;;;;;;;;5071881;28;20737;-84
2022/09/30 10:09:37;;;;;;;7.43;6.65;;;;;;;;;;5072155;28;20404;-84
2022/09/30 10:12:06;;;;;;;6.10;5.60;;;;;;;;;;4989376;28;20419;-84
2022/09/30 10:14:36;;;;;;;6.93;6.32;;;;;;;;;;4989992;28;20389;-84
2022/09/30 10:17:04;;;;;;;6.40;5.90;;;;;;;;;;4989942;28;20379;-84
2022/09/30 10:19:32;;;;;;;6.30;5.80;;;;;;;;;;4990377;28;20379;-84
2022/09/30 10:22:20;;;;;;;5.97;5.57;;;;;;;;;;4989786;28;20414;-84
2022/09/30 10:24:46;;;;;;;5.82;5.43;;;;;;;;;;5067844;28;20379;-85
2022/09/30 10:27:31;;;;;;;6.07;5.13;;;;;;;;;;5072382;28;20395;-84
2022/09/30 10:29:58;;;;;;;4.53;4.22;;;;;;;;;;4993347;28;20413;-84
2022/09/30 10:32:24;;;;;;;5.68;5.18;;;;;;;;;;4993142;28;20435;-83
2022/09/30 10:35:02;;;;;;;4.50;4.20;;;;;;;;;;4993258;28;20387;-84
2022/09/30 10:37:28;;;;;;;4.75;4.40;;;;;;;;;;4993212;28;20398;-84
2022/09/30 10:40:08;;;;;;;4.10;3.80;;;;;;;;;;5069248;28;20372;-84
2022/09/30 10:42:38;;;;;;;2.88;2.67;;;;;;;;;;4993110;28;20390;-85
2022/09/30 10:45:16;;;;;;;3.20;3.00;;;;;;;;;;4993306;28;20422;-85
2022/09/30 10:47:47;;;;;;;3.88;3.58;;;;;;;;;;4993194;28;20435;-84
2022/09/30 10:50:16;;;;;;;5.43;4.30;;;;;;;;;;4992805;28;20455;-84
2022/09/30 10:53:17;;;;;;;4.43;4.07;;;;;;;;;;4992862;28;20382;-84
2022/09/30 10:55:44;;;;;;;3.80;3.50;;;;;;;;;;5013753;28;20415;-84
2022/09/30 10:58:34;;;;;;;3.65;3.35;;;;;;;;;;5041374;28;20455;-84
2022/09/30 11:01:14;;;;;;;3.90;3.60;;;;;;;;;;5065274;28;20388;-83
2022/09/30 11:03:48;;;;;;;3.77;3.47;;;;;;;;;;5075269;28;20930;-83
2022/09/30 11:06:14;;;;;;;3.27;2.97;;;;;;;;;;4992946;28;20817;-83
2022/09/30 11:09:03;;;;;;;3.55;3.25;;;;;;;;;;5034536;28;20384;-83
2022/09/30 11:11:39;;;;;;;3.20;3.00;;;;;;;;;;5059961;28;20828;-84
2022/09/30 11:14:13;;;;;;;2.97;2.78;;;;;;;;;;5060261;28;20860;-84
2022/09/30 11:16:47;;;;;;;3.08;2.88;;;;;;;;;;5062565;28;20450;-83
2022/09/30 11:19:13;;;;;;;3.25;3.05;;;;;;;;;;5058557;28;20386;-83
2022/09/30 11:21:57;;;;;;;3.80;3.33;;;;;;;;;;5059196;28;20411;-83
2022/09/30 11:24:35;;;;;;;3.13;2.83;;;;;;;;;;5066471;28;20380;-84
2022/09/30 11:27:04;;;;;;;3.67;3.10;;;;;;;;;;5053547;28;20408;-85
2022/09/30 11:29:46;;;;;;;3.20;3.00;;;;;;;;;;5060567;28;20439;-85
2022/09/30 11:32:27;;;;;;;7.85;3.35;;;;;;;;;;5056805;28;20461;-83
2022/09/30 11:34:56;;;;;;;3.33;3.10;;;;;;;;;;5056530;28;20377;-86
2022/09/30 11:37:52;;;;;;;3.40;3.20;;;;;;;;;;5055258;28;20377;-85
2022/09/30 11:40:20;;;;;;;2.72;2.53;;;;;;;;;;5046409;28;20401;-86
2022/09/30 11:43:05;;;;;;;3.30;3.10;;;;;;;;;;5070241;28;20387;-86
2022/09/30 11:45:50;;;;;;;3.10;2.90;;;;;;;;;;5056915;28;20393;-78
2022/09/30 11:48:18;;;;;;;3.20;2.70;;;;;;;;;;5054067;28;20383;-78
2022/09/30 11:50:52;;;;;;;2.92;2.70;;;;;;;;;;5053326;28;20445;-79
2022/09/30 11:53:40;;;;;;;2.30;2.20;;;;;;;;;;5064735;28;20783;-80
2022/09/30 11:56:17;;;;;;;2.90;2.65;;;;;;;;;;5072632;28;20777;-79
2022/09/30 11:58:45;;;;;;;2.90;2.70;;;;;;;;;;5073277;28;20380;-79
2022/09/30 12:01:37;;;;;;;2.97;2.78;;;;;;;;;;5072724;28;20407;-79
2022/09/30 12:04:04;;;;;;;3.70;3.40;;;;;;;;;;4971841;28;20584;-78
2022/09/30 12:06:32;;;;;;;3.60;3.30;;;;;;;;;;5067969;28;20468;-78
2022/09/30 12:09:02;;;;;;;3.88;3.58;;;;;;;;;;5070333;28;20379;-83
2022/09/30 12:11:31;;;;;;;4.40;3.17;;;;;;;;;;5072788;28;20408;-83
2022/09/30 12:14:00;;;;;;;2.93;2.73;;;;;;;;;;5072999;28;20384;-83
2022/09/30 12:16:28;;;;;;;2.08;1.92;;;;;;;;;;5073473;28;20395;-83
2022/09/30 12:19:02;;;;;;;2.25;2.03;;;;;;;;;;5067289;28;20431;-83
2022/09/30 12:21:31;;;;;;;1.63;1.53;;;;;;;;;;5073518;28;20520;-82
2022/09/30 12:23:57;;;;;;;3.15;2.00;;;;;;;;;;5072578;28;20835;-83
2022/09/30 12:26:24;;;;;;;1.77;1.67;;;;;;;;;;5073641;28;20455;-83
2022/09/30 12:32:10;;;;;;;1.95;1.52;;;;;;;;;;5029355;28;20438;-83
2022/09/30 12:34:42;;;;;;;2.75;1.50;;;;;;;;;;5073744;28;20372;-83
2022/09/30 12:37:26;;;;;;;1.92;1.73;;;;;;;;;;5062454;28;20738;-83
2022/09/30 12:39:52;;;;;;;3.85;1.90;;;;;;;;;;5072923;28;20787;-83
2022/09/30 12:42:24;;;;;;;1.63;1.50;;;;;;;;;;5073683;28;20380;-83
2022/09/30 12:44:51;;;;;;;2.13;1.35;;;;;;;;;;5073229;28;20372;-83
2022/09/30 12:47:17;;;;;;;2.50;1.10;;;;;;;;;;5073155;28;20394;-82
2022/09/30 12:49:43;;;;;;;1.02;0.93;;;;;;;;;;5073322;28;20896;-83
2022/09/30 12:52:14;;;;;;;7.43;1.38;;;;;;;;;;5071922;28;20444;-83
2022/09/30 12:54:42;;;;;;;1.20;1.10;;;;;;;;;;5073487;28;20721;-83
2022/09/30 12:57:09;;;;;;;2.38;0.90;;;;;;;;;;5073059;28;20384;-83
2022/09/30 12:59:47;;;;;;;1.02;1.00;;;;;;;;;;5073243;28;20383;-83
2022/09/30 13:02:27;;;;;;;1.40;1.30;;;;;;;;;;5073088;28;20398;-86
2022/09/30 13:04:53;;;;;;;1.10;1.00;;;;;;;;;;4990767;28;20467;-86
2022/09/30 13:07:22;;;;;;;0.85;0.85;;;;;;;;;;4990918;28;20422;-85
2022/09/30 13:09:55;;;;;;;6.57;1.00;;;;;;;;;;4973361;28;20411;-83
2022/09/30 13:12:26;;;;;;;1.13;1.00;;;;;;;;;;4990852;28;20550;-86
2022/09/30 13:15:12;;;;;;;2.40;1.08;;;;;;;;;;4990871;28;20386;-83
2022/09/30 13:17:38;;;;;;;1.55;1.00;;;;;;;;;;4990723;28;20845;-84
2022/09/30 13:20:24;;;;;;;1.15;1.05;;;;;;;;;;4990787;28;20462;-84
2022/09/30 13:22:56;;;;;;;2.22;1.00;;;;;;;;;;5071881;28;20922;-85
2022/09/30 13:25:22;;;;;;;2.58;1.15;;;;;;;;;;5072921;28;20784;-84
2022/09/30 13:28:07;;;;;;;1.45;1.00;;;;;;;;;;5075312;28;20379;-85
2022/09/30 13:30:35;;;;;;;1.75;0.70;;;;;;;;;;5072595;28;20872;-83
2022/09/30 13:33:01;;;;;;;1.17;0.80;;;;;;;;;;5072796;28;20770;-83
2022/09/30 13:35:33;;;;;;;2.10;1.00;;;;;;;;;;5072589;28;20848;-84
2022/09/30 13:38:11;;;;;;;4.38;1.00;;;;;;;;;;5062751;28;20862;-84
2022/09/30 13:40:48;;;;;;;3.60;1.10;;;;;;;;;;5063723;28;20383;-84
2022/09/30 13:43:19;;;;;;;3.47;0.90;;;;;;;;;;4990501;28;20463;-84
2022/09/30 13:45:47;;;;;;;2.22;1.00;;;;;;;;;;4990466;28;20879;-84
2022/09/30 13:48:22;;;;;;;0.95;0.80;;;;;;;;;;5040200;28;20407;-84
2022/09/30 13:50:50;;;;;;;4.70;0.98;;;;;;;;;;5072097;28;20411;-85
2022/09/30 13:53:22;;;;;;;1.00;0.80;;;;;;;;;;4990447;28;20401;-87
2022/09/30 13:55:52;;;;;;;1.38;0.98;;;;;;;;;;5024017;28;20462;-87
2022/09/30 13:58:24;;;;;;;2.10;1.23;;;;;;;;;;5068794;28;20380;-87
2022/09/30 14:00:56;;;;;;;0.80;0.80;;;;;;;;;;5072220;28;20372;-87
2022/09/30 14:03:38;;;;;;;0.82;0.80;;;;;;;;;;5072101;28;20744;-86
2022/09/30 14:06:09;;;;;;;0.88;0.88;;;;;;;;;;5072268;28;20482;-86
2022/09/30 14:08:41;;;;;;;5.88;1.30;;;;;;;;;;5054471;28;20478;-89
2022/09/30 14:11:26;;;;;;;1.55;1.00;;;;;;;;;;5069574;28;20416;-86
2022/09/30 14:14:11;;;;;;;2.78;1.10;;;;;;;;;;5071040;28;20372;-87
2022/09/30 14:16:55;;;;;;;1.55;1.00;;;;;;;;;;5071026;28;20522;-85
2022/09/30 14:19:21;;;;;;;2.20;1.00;;;;;;;;;;5071352;28;20399;-85
2022/09/30 14:21:55;;;;;;;1.23;0.90;;;;;;;;;;5069747;28;20402;-85
2022/09/30 14:24:25;;;;;;;1.75;0.70;;;;;;;;;;5072163;28;20382;-87
2022/09/30 14:26:58;;;;;;;1.50;0.88;;;;;;;;;;5069830;28;20857;-86
2022/09/30 14:29:38;;;;;;;0.90;0.90;;;;;;;;;;5069417;28;20368;-87
2022/09/30 14:32:17;;;;;;;1.58;0.80;;;;;;;;;;5070849;28;20388;-88
2022/09/30 14:34:44;;;;;;;3.23;1.00;;;;;;;;;;5068073;28;20459;-88
2022/09/30 14:37:28;;;;;;;2.80;0.77;;;;;;;;;;5068353;28;20395;-87
2022/09/30 14:39:54;;;;;;;2.45;0.90;;;;;;;;;;5065127;28;20383;-87
2022/09/30 14:42:28;;;;;;;2.30;1.00;;;;;;;;;;5071457;28;20376;-87
2022/09/30 14:44:55;;;;;;;1.00;0.70;;;;;;;;;;5070388;28;20372;-88
2022/09/30 14:47:21;;;;;;;1.55;0.70;;;;;;;;;;5071931;28;20387;-87
2022/09/30 14:49:48;;;;;;;3.88;0.80;;;;;;;;;;5070805;28;20403;-88
2022/09/30 14:52:34;;;;;;;4.68;0.70;;;;;;;;;;5071470;28;20384;-88
2022/09/30 14:55:00;;;;;;;1.27;0.70;;;;;;;;;;5071970;28;20455;-88
2022/09/30 14:57:26;;;;;;;1.33;0.80;;;;;;;;;;5071285;28;20459;-88
2022/09/30 15:00:13;;;;;;;1.17;0.77;;;;;;;;;;5071890;28;20441;-88
2022/09/30 15:02:43;;;;;;;0.93;0.80;;;;;;;;;;5071585;28;20459;-88
2022/09/30 15:05:12;;;;;;;1.43;0.70;;;;;;;;;;5070772;28;20390;-87
2022/09/30 15:07:39;;;;;;;0.80;0.80;;;;;;;;;;4989357;28;20387;-87
2022/09/30 15:10:06;;;;;;;4.70;1.30;;;;;;;;;;4989394;28;20407;-87
2022/09/30 15:12:35;;;;;;;1.20;1.10;;;;;;;;;;4989186;28;20398;-88
2022/09/30 15:15:02;;;;;;;1.60;1.10;;;;;;;;;;5048392;28;20423;-91
2022/09/30 15:17:29;;;;;;;2.00;1.10;;;;;;;;;;5077541;28;20372;-90
2022/09/30 15:19:57;;;;;;;1.90;0.90;;;;;;;;;;5073731;28;20457;-91
2022/09/30 15:22:25;;;;;;;0.70;0.70;;;;;;;;;;5073029;28;20887;-89
2022/09/30 15:24:52;;;;;;;0.70;0.70;;;;;;;;;;5070944;28;20384;-87
2022/09/30 15:27:18;;;;;;;0.93;0.57;;;;;;;;;;4992469;28;20402;-89
2022/09/30 15:29:57;;;;;;;1.33;0.60;;;;;;;;;;5055491;28;20399;-89
2022/09/30 15:32:24;;;;;;;1.05;0.60;;;;;;;;;;5075007;28;20364;-91
2022/09/30 15:34:51;;;;;;;0.40;0.40;;;;;;;;;;5077611;28;20403;-89
2022/09/30 15:37:21;;;;;;;2.95;0.65;;;;;;;;;;5074922;28;20371;-89
2022/09/30 15:42:34;;;;;;;1.70;0.60;;;;;;;;;;5062875;28;20390;-95
2022/09/30 15:45:01;;;;;;;0.88;0.70;;;;;;;;;;5076405;28;20864;-89
2022/09/30 15:47:27;;;;;;;0.60;0.50;;;;;;;;;;5073815;28;20380;-90
2022/09/30 15:49:54;;;;;;;3.08;0.88;;;;;;;;;;5074818;28;20399;-88
2022/09/30 15:52:26;;;;;;;1.38;0.93;;;;;;;;;;5074813;28;20384;-81
2022/09/30 15:54:53;;;;;;;3.47;0.95;;;;;;;;;;5073281;28;20387;-87
2022/09/30 15:57:39;;;;;;;5.00;1.10;;;;;;;;;;5056021;28;20430;-86
2022/09/30 16:00:09;;;;;;;0.93;0.88;;;;;;;;;;5073817;28;20398;-86
2022/09/30 16:02:35;;;;;;;1.90;0.90;;;;;;;;;;5074326;28;20383;-88
2022/09/30 16:05:02;;;;;;;0.70;0.70;;;;;;;;;;5056157;28;20872;-88
2022/09/30 16:07:30;;;;;;;1.33;0.70;;;;;;;;;;5073582;28;20744;-88
2022/09/30 16:09:58;;;;;;;0.73;0.73;;;;;;;;;;5056231;28;20908;-87
2022/09/30 16:12:26;;;;;;;1.63;0.67;;;;;;;;;;5073921;28;20408;-85
2022/09/30 16:14:54;;;;;;;2.00;0.90;;;;;;;;;;5074221;28;20379;-85
2022/09/30 16:17:32;;;;;;;4.82;0.80;;;;;;;;;;5074138;28;20463;-87
2022/09/30 16:19:58;;;;;;;1.83;0.95;;;;;;;;;;5073719;28;20387;-87
2022/09/30 16:22:33;;;;;;;1.98;1.02;;;;;;;;;;5073462;28;20392;-88
2022/09/30 16:25:13;;;;;;;2.08;1.00;;;;;;;;;;5081446;28;20396;-88
2022/09/30 16:27:39;;;;;;;0.80;0.80;;;;;;;;;;5074711;28;20776;-88
2022/09/30 16:30:05;;;;;;;2.47;0.95;;;;;;;;;;5074133;28;20404;-89
2022/09/30 16:32:35;;;;;;;1.65;0.90;;;;;;;;;;5073651;28;20376;-91
2022/09/30 16:35:01;;;;;;;1.48;0.95;;;;;;;;;;5073737;28;20879;-86
2022/09/30 16:37:27;;;;;;;1.00;0.90;;;;;;;;;;5073027;28;20843;-86
2022/09/30 16:39:55;;;;;;;1.80;1.00;;;;;;;;;;5071961;28;20416;-87
2022/09/30 16:42:21;;;;;;;2.50;0.90;;;;;;;;;;5070183;28;20446;-87
2022/09/30 16:44:47;;;;;;;0.90;0.80;;;;;;;;;;5072564;28;20386;-86
2022/09/30 16:47:15;;;;;;;2.08;1.20;;;;;;;;;;5068260;28;20749;-86
2022/09/30 16:49:43;;;;;;;1.42;0.90;;;;;;;;;;4969289;28;20416;-83
2022/09/30 16:52:10;;;;;;;2.72;0.90;;;;;;;;;;5069974;28;20396;-84
2022/09/30 16:54:36;;;;;;;1.10;0.90;;;;;;;;;;5070798;28;20470;-86
2022/09/30 16:57:03;;;;;;;1.60;0.90;;;;;;;;;;5069260;28;21124;-85
2022/09/30 16:59:31;;;;;;;1.77;1.00;;;;;;;;;;5071171;28;20848;-86
2022/09/30 17:01:58;;;;;;;3.00;0.80;;;;;;;;;;5070341;28;20384;-86
2022/09/30 17:04:24;;;;;;;2.20;1.27;;;;;;;;;;5052677;28;20380;-86
2022/09/30 17:06:50;;;;;;;1.38;0.90;;;;;;;;;;5070567;28;20449;-85
2022/09/30 17:09:16;;;;;;;3.87;1.00;;;;;;;;;;5070449;28;20462;-85
2022/09/30 17:11:42;;;;;;;1.35;0.90;;;;;;;;;;5070186;28;20473;-85
2022/09/30 17:14:08;;;;;;;1.08;0.88;;;;;;;;;;5070494;28;20462;-85
2022/09/30 17:16:34;;;;;;;1.38;0.80;;;;;;;;;;5071590;28;20386;-85
2022/09/30 17:19:00;;;;;;;1.40;1.20;;;;;;;;;;5072771;28;20836;-85
2022/09/30 17:21:27;;;;;;;1.10;0.90;;;;;;;;;;5071020;28;21035;-85
2022/09/30 17:23:53;;;;;;;1.40;0.55;;;;;;;;;;5069617;28;20474;-85
2022/09/30 17:26:19;;;;;;;1.13;0.60;;;;;;;;;;5070648;28;20399;-84
2022/09/30 17:28:46;;;;;;;5.28;1.00;;;;;;;;;;5052808;28;20900;-85
2022/09/30 17:31:12;;;;;;;3.72;0.80;;;;;;;;;;5070416;28;20435;-85
2022/09/30 17:33:39;;;;;;;4.55;1.20;;;;;;;;;;5070882;28;20375;-85
2022/09/30 17:36:08;;;;;;;11.70;1.27;;;;;;;;;;5020974;28;20387;-85
2022/09/30 17:38:34;;;;;;;4.43;1.38;;;;;;;;;;5070581;28;20729;-84
2022/09/30 17:43:45;;;;;;;1.23;0.88;;;;;;;;;;5073716;28;20800;-84
2022/09/30 17:46:14;;;;;;;1.67;1.15;;;;;;;;;;5070070;28;20463;-85
2022/09/30 17:48:40;;;;;;;2.60;0.93;;;;;;;;;;5070658;28;20406;-85
2022/09/30 17:51:06;;;;;;;1.10;0.63;;;;;;;;;;5070824;28;20403;-84
2022/09/30 17:53:32;;;;;;;1.65;0.80;;;;;;;;;;5072051;28;20376;-85
2022/09/30 17:56:03;;;;;;;4.95;1.10;;;;;;;;;;5066031;28;20850;-85
2022/09/30 17:58:29;;;;;;;1.70;1.00;;;;;;;;;;5066695;28;20466;-85
2022/09/30 18:00:57;;;;;;;4.03;1.10;;;;;;;;;;5069332;28;20419;-85
2022/09/30 18:03:24;;;;;;;1.80;1.00;;;;;;;;;;5070237;28;20387;-85
2022/09/30 18:05:57;;;;;;;3.80;1.20;;;;;;;;;;5070787;28;20470;-85
2022/09/30 18:08:24;;;;;;;5.32;1.50;;;;;;;;;;5071666;28;20459;-85
2022/09/30 18:10:50;;;;;;;2.92;1.20;;;;;;;;;;5070725;28;20411;-84
2022/09/30 18:13:20;;;;;;;1.15;0.90;;;;;;;;;;5072150;28;20870;-85
2022/09/30 18:15:46;;;;;;;2.60;1.13;;;;;;;;;;5072140;28;20467;-84
2022/09/30 18:18:13;;;;;;;2.78;1.60;;;;;;;;;;5072181;28;20376;-85
2022/09/30 18:20:43;;;;;;;3.35;1.60;;;;;;;;;;5071569;28;20386;-85
2022/09/30 18:23:09;;;;;;;4.22;1.65;;;;;;;;;;4989892;28;20387;-85
2022/09/30 18:25:37;;;;;;;8.85;7.88;;;;;;;;;;4989883;28;20460;-85
2022/09/30 18:28:04;;;;;;;13.90;12.60;;;;;;;;;;4990116;28;20387;-85
2022/09/30 18:30:30;;;;;;;15.15;13.73;;;;;;;;;;4989739;28;20411;-85
2022/09/30 18:32:57;;;;;;;10.85;9.85;;;;;;;;;;4989746;28;20389;-84
2022/09/30 18:35:24;;;;;;;9.65;8.85;;;;;;;;;;4972418;28;20390;-84
2022/09/30 18:37:50;;;;;;;7.18;6.47;;;;;;;;;;4989673;28;20397;-84
2022/09/30 18:40:18;;;;;;;4.47;3.05;;;;;;;;;;4989756;28;20429;-85
2022/09/30 18:42:44;;;;;;;5.20;4.00;;;;;;;;;;4989488;28;20379;-84
2022/09/30 18:45:11;;;;;;;2.63;2.10;;;;;;;;;;4989888;28;20473;-84
2022/09/30 18:47:41;;;;;;;3.80;2.20;;;;;;;;;;4989949;28;20385;-84
2022/09/30 18:50:07;;;;;;;2.97;2.00;;;;;;;;;;4992638;28;20411;-85
2022/09/30 18:52:33;;;;;;;3.13;1.83;;;;;;;;;;4992937;28;20389;-85
2022/09/30 18:54:59;;;;;;;2.40;1.70;;;;;;;;;;4992997;28;20375;-84
2022/09/30 18:57:25;;;;;;;4.30;2.03;;;;;;;;;;5011546;28;20867;-85
2022/09/30 18:59:51;;;;;;;2.03;1.70;;;;;;;;;;5073212;28;20376;-85
2022/09/30 19:02:19;;;;;;;3.42;2.53;;;;;;;;;;5075388;28;20372;-84
2022/09/30 19:04:48;;;;;;;3.20;2.90;;;;;;;;;;5075277;28;20887;-85
2022/09/30 19:07:18;;;;;;;4.30;3.60;;;;;;;;;;5075307;28;20403;-84
2022/09/30 19:09:45;;;;;;;6.43;5.05;;;;;;;;;;5075240;28;20386;-85